createdAt,value
2022-08-03T00:00:53.227Z,3.63
2022-08-03T00:01:54.886Z,3.60
2022-08-03T00:02:56.847Z,3.43
2022-08-03T00:03:58.788Z,3.60
2022-08-03T00:05:00.513Z,3.93
2022-08-03T00:06:04.593Z,3.40
2022-08-03T00:07:06.763Z,3.40
2022-08-03T00:08:08.500Z,3.70
2022-08-03T00:09:11.150Z,3.40
2022-08-03T00:10:14.355Z,3.43
2022-08-03T00:11:16.517Z,3.60
2022-08-03T00:12:18.804Z,3.00
2022-08-03T00:13:21.128Z,3.20
2022-08-03T00:14:23.060Z,3.87
2022-08-03T00:15:25.292Z,3.43
2022-08-03T00:16:27.527Z,3.63
2022-08-03T00:17:29.368Z,3.50
2022-08-03T00:18:31.261Z,3.33
2022-08-03T00:19:33.106Z,3.40
2022-08-03T00:20:35.265Z,3.30
2022-08-03T00:21:37.493Z,4.10
2022-08-03T00:22:39.742Z,3.60
2022-08-03T00:23:51.506Z,3.50
2022-08-03T00:24:54.266Z,3.53
2022-08-03T00:25:56.900Z,3.50
2022-08-03T00:26:58.804Z,3.53
2022-08-03T00:28:00.636Z,3.80
2022-08-03T00:29:02.896Z,3.57
2022-08-03T00:30:05.270Z,3.53
2022-08-03T00:31:07.894Z,4.00
2022-08-03T00:32:15.449Z,3.30
2022-08-03T00:33:19.427Z,2.93
2022-08-03T00:34:36.453Z,3.40
2022-08-03T00:35:50.901Z,3.30
2022-08-03T00:36:52.933Z,3.43
2022-08-03T00:37:54.642Z,3.37
2022-08-03T00:38:56.831Z,3.60
2022-08-03T00:39:59.827Z,4.00
2022-08-03T00:41:02.055Z,3.20
2022-08-03T00:42:04.800Z,3.20
2022-08-03T00:43:07.807Z,3.83
2022-08-03T00:44:09.489Z,3.00
2022-08-03T00:45:11.415Z,3.70
2022-08-03T00:46:16.438Z,3.70
2022-08-03T00:47:22.572Z,3.50
2022-08-03T00:48:32.156Z,3.43
2022-08-03T00:49:39.822Z,3.37
2022-08-03T00:50:43.630Z,3.83
2022-08-03T00:51:45.622Z,3.30
2022-08-03T00:52:47.662Z,3.30
2022-08-03T00:53:50.123Z,3.53
2022-08-03T00:54:52.007Z,3.43
2022-08-03T00:55:54.118Z,3.80
2022-08-03T00:56:59.858Z,3.57
2022-08-03T00:58:06.817Z,3.67
2022-08-03T00:59:10.701Z,3.33
2022-08-03T01:00:20.606Z,3.27
2022-08-03T01:01:24.771Z,3.10
2022-08-03T01:12:00.534Z,3.87
2022-08-03T01:14:01.640Z,3.37
2022-08-03T01:15:19.661Z,3.40
2022-08-03T01:16:37.184Z,3.43
2022-08-03T01:17:50.194Z,3.40
2022-08-03T01:18:55.507Z,3.40
2022-08-03T01:20:05.156Z,3.77
2022-08-03T01:21:21.692Z,3.40
2022-08-03T01:22:52.137Z,3.67
2022-08-03T01:24:06.318Z,3.60
2022-08-03T01:25:36.477Z,3.10
2022-08-03T01:26:59.669Z,3.40
2022-08-03T01:28:26.541Z,3.20
2022-08-03T01:29:50.520Z,3.70
2022-08-03T01:30:56.135Z,3.30
2022-08-03T01:32:58.849Z,3.43
2022-08-03T01:33:52.867Z,3.80
2022-08-03T01:35:12.950Z,3.40
2022-08-03T01:36:18.500Z,3.10
2022-08-03T01:37:27.973Z,3.30
2022-08-03T01:38:33.917Z,3.30
2022-08-03T01:39:38.223Z,2.83
2022-08-03T01:40:42.772Z,3.13
2022-08-03T01:41:51.053Z,3.50
2022-08-03T01:42:55.979Z,3.60
2022-08-03T01:44:29.942Z,3.67
2022-08-03T01:45:22.831Z,3.30
2022-08-03T01:46:26.344Z,3.47
2022-08-03T01:47:29.823Z,3.37
2022-08-03T01:48:32.515Z,3.40
2022-08-03T01:49:38.662Z,3.67
2022-08-03T01:50:40.953Z,3.60
2022-08-03T01:52:04.157Z,3.37
2022-08-03T01:53:08.264Z,3.20
2022-08-03T01:54:13.645Z,3.60
2022-08-03T01:55:19.030Z,3.57
2022-08-03T01:56:24.257Z,3.33
2022-08-03T01:57:29.038Z,3.20
2022-08-03T01:58:33.968Z,3.37
2022-08-03T01:59:36.951Z,3.10
2022-08-03T02:00:39.688Z,3.57
2022-08-03T02:02:25.184Z,3.23
2022-08-03T02:03:08.821Z,3.37
2022-08-03T02:04:12.848Z,3.30
2022-08-03T02:05:15.589Z,3.00
2022-08-03T02:07:01.928Z,3.83
2022-08-03T02:07:43.828Z,3.53
2022-08-03T02:08:46.758Z,3.20
2022-08-03T02:09:52.083Z,3.50
2022-08-03T02:10:57.137Z,3.07
2022-08-03T02:12:00.878Z,3.33
2022-08-03T02:13:05.633Z,3.30
2022-08-03T02:14:09.313Z,3.57
2022-08-03T02:15:12.791Z,3.60
2022-08-03T02:16:19.182Z,3.40
2022-08-03T02:17:39.102Z,3.33
2022-08-03T02:18:43.418Z,3.00
2022-08-03T02:19:46.034Z,3.30
2022-08-03T02:20:48.954Z,3.10
2022-08-03T02:21:56.652Z,3.50
2022-08-03T02:23:03.430Z,3.33
2022-08-03T02:24:06.316Z,3.50
2022-08-03T02:25:13.446Z,3.63
2022-08-03T02:26:17.597Z,3.43
2022-08-03T02:27:24.400Z,3.80
2022-08-03T02:28:32.307Z,3.63
2022-08-03T02:29:38.803Z,3.30
2022-08-03T02:30:45.464Z,3.50
2022-08-03T02:31:49.297Z,3.63
2022-08-03T02:32:55.996Z,3.20
2022-08-03T02:34:03.084Z,3.43
2022-08-03T02:35:09.561Z,3.80
2022-08-03T02:36:13.828Z,3.77
2022-08-03T02:37:19.875Z,3.20
2022-08-03T02:38:26.143Z,3.83
2022-08-03T02:39:31.480Z,3.10
2022-08-03T02:40:34.303Z,2.93
2022-08-03T02:41:44.344Z,3.30
2022-08-03T02:42:49.822Z,3.13
2022-08-03T02:44:06.033Z,3.60
2022-08-03T02:45:14.999Z,3.07
2022-08-03T02:46:20.819Z,3.50
2022-08-03T02:47:27.860Z,3.03
2022-08-03T02:48:32.794Z,3.80
2022-08-03T02:49:49.759Z,3.80
2022-08-03T02:50:55.576Z,3.90
2022-08-03T02:51:59.893Z,3.37
2022-08-03T02:53:03.698Z,3.93
2022-08-03T02:54:06.888Z,3.80
2022-08-03T02:55:11.273Z,3.90
2022-08-03T02:56:14.120Z,3.40
2022-08-03T02:57:17.445Z,3.90
2022-08-03T02:58:24.186Z,3.93
2022-08-03T02:59:27.691Z,3.90
2022-08-03T03:00:31.753Z,3.13
2022-08-03T03:01:34.022Z,3.80
2022-08-03T03:02:36.990Z,3.37
2022-08-03T03:03:45.044Z,3.90
2022-08-03T03:05:51.764Z,3.90
2022-08-03T03:06:13.647Z,3.60
2022-08-03T03:07:17.801Z,3.50
2022-08-03T03:08:28.118Z,3.80
2022-08-03T03:09:40.198Z,3.50
2022-08-03T03:10:44.509Z,3.87
2022-08-03T03:11:46.593Z,3.47
2022-08-03T03:12:51.967Z,3.53
2022-08-03T03:13:55.988Z,4.23
2022-08-03T03:14:58.137Z,3.83
2022-08-03T03:16:05.002Z,3.73
2022-08-03T03:17:15.006Z,3.90
2022-08-03T03:18:22.258Z,3.90
2022-08-03T03:19:26.273Z,3.50
2022-08-03T03:20:30.610Z,3.60
2022-08-03T03:21:33.693Z,3.97
2022-08-03T03:22:36.221Z,3.57
2022-08-03T03:23:40.089Z,3.97
2022-08-03T03:24:44.258Z,3.80
2022-08-03T03:25:46.696Z,3.97
2022-08-03T03:26:48.961Z,3.57
2022-08-03T03:27:51.052Z,3.60
2022-08-03T03:28:53.506Z,3.90
2022-08-03T03:29:55.248Z,3.30
2022-08-03T03:30:57.023Z,4.00
2022-08-03T03:31:58.879Z,3.70
2022-08-03T03:33:04.452Z,4.20
2022-08-03T03:34:06.700Z,3.60
2022-08-03T03:35:10.018Z,3.43
2022-08-03T03:36:11.945Z,4.10
2022-08-03T03:37:13.676Z,4.10
2022-08-03T03:38:15.356Z,3.90
2022-08-03T03:39:17.065Z,4.50
2022-08-03T03:40:19.558Z,3.37
2022-08-03T03:41:21.748Z,3.30
2022-08-03T03:42:23.565Z,3.40
2022-08-03T03:43:25.521Z,4.17
2022-08-03T03:44:29.321Z,3.50
2022-08-03T03:45:31.697Z,3.43
2022-08-03T03:46:33.388Z,3.57
2022-08-03T03:47:36.068Z,4.00
2022-08-03T03:48:38.962Z,3.83
2022-08-03T03:49:42.998Z,3.73
2022-08-03T03:50:45.554Z,3.80
2022-08-03T03:51:47.529Z,3.87
2022-08-03T03:52:49.660Z,3.80
2022-08-03T03:54:02.881Z,3.17
2022-08-03T03:55:05.076Z,3.27
2022-08-03T03:56:06.851Z,3.80
2022-08-03T03:57:13.111Z,3.57
2022-08-03T03:58:15.586Z,3.80
2022-08-03T03:59:17.340Z,3.53
2022-08-03T04:00:19.855Z,3.60
2022-08-03T04:01:22.181Z,3.67
2022-08-03T04:02:23.941Z,3.87
2022-08-03T04:03:25.650Z,3.60
2022-08-03T04:04:45.892Z,3.50
2022-08-03T04:06:06.882Z,3.67
2022-08-03T04:07:38.305Z,4.37
2022-08-03T04:08:59.783Z,4.33
2022-08-03T04:10:21.185Z,4.10
2022-08-03T04:11:34.718Z,4.10
2022-08-03T04:12:37.739Z,3.60
2022-08-03T04:14:08.398Z,3.83
2022-08-03T04:15:12.497Z,3.93
2022-08-03T04:16:18.023Z,4.17
2022-08-03T04:17:20.593Z,3.87
2022-08-03T04:18:24.839Z,3.70
2022-08-03T04:19:47.144Z,3.90
2022-08-03T04:20:50.490Z,4.50
2022-08-03T04:21:57.139Z,4.10
2022-08-03T04:23:00.348Z,4.40
2022-08-03T04:24:04.856Z,4.00
2022-08-03T04:25:10.518Z,4.10
2022-08-03T04:26:15.185Z,4.23
2022-08-03T04:27:21.046Z,3.93
2022-08-03T04:28:30.617Z,3.80
2022-08-03T04:29:36.100Z,3.93
2022-08-03T04:30:47.580Z,4.37
2022-08-03T04:31:50.914Z,3.77
2022-08-03T04:32:54.443Z,4.40
2022-08-03T04:33:57.871Z,3.63
2022-08-03T04:34:59.951Z,4.07
2022-08-03T04:36:04.470Z,3.87
2022-08-03T04:37:33.695Z,3.73
2022-08-03T04:38:52.612Z,3.87
2022-08-03T04:39:57.987Z,3.93
2022-08-03T04:41:01.157Z,3.77
2022-08-03T04:42:16.995Z,3.97
2022-08-03T04:43:21.269Z,4.20
2022-08-03T04:44:28.313Z,4.20
2022-08-03T04:45:32.944Z,3.57
2022-08-03T04:46:39.927Z,4.13
2022-08-03T04:47:49.587Z,4.20
2022-08-03T04:48:51.820Z,4.00
2022-08-03T04:49:54.132Z,4.40
2022-08-03T04:50:56.522Z,4.57
2022-08-03T04:51:58.728Z,4.40
2022-08-03T04:53:00.501Z,4.70
2022-08-03T04:54:02.604Z,3.80
2022-08-03T04:55:05.084Z,3.87
2022-08-03T04:56:07.340Z,3.90
2022-08-03T04:57:10.283Z,3.60
2022-08-03T04:58:24.337Z,4.33
2022-08-03T04:59:26.030Z,3.47
2022-08-03T05:00:28.339Z,3.73
2022-08-03T05:01:30.087Z,4.00
2022-08-03T05:02:32.400Z,3.67
2022-08-03T05:03:34.359Z,4.07
2022-08-03T05:04:36.134Z,4.10
2022-08-03T05:05:50.657Z,3.70
2022-08-03T05:06:54.920Z,3.97
2022-08-03T05:07:57.547Z,3.60
2022-08-03T05:09:02.980Z,4.10
2022-08-03T05:10:10.155Z,3.30
2022-08-03T05:11:17.961Z,3.60
2022-08-03T05:12:19.620Z,3.80
2022-08-03T05:13:21.329Z,4.40
2022-08-03T05:14:28.296Z,4.17
2022-08-03T05:15:30.574Z,4.03
2022-08-03T05:16:32.971Z,4.17
2022-08-03T05:17:34.807Z,3.97
2022-08-03T05:18:36.535Z,3.87
2022-08-03T05:19:38.256Z,3.50
2022-08-03T05:20:39.920Z,3.80
2022-08-03T05:21:51.879Z,4.10
2022-08-03T05:22:55.026Z,3.73
2022-08-03T05:23:57.251Z,3.47
2022-08-03T05:24:59.068Z,3.87
2022-08-03T05:26:00.805Z,4.47
2022-08-03T05:27:02.474Z,4.60
2022-08-03T05:28:04.760Z,4.07
2022-08-03T05:29:09.529Z,4.30
2022-08-03T05:30:31.685Z,4.50
2022-08-03T05:31:33.592Z,4.40
2022-08-03T05:32:35.282Z,4.60
2022-08-03T05:33:37.050Z,4.17
2022-08-03T05:34:38.841Z,4.50
2022-08-03T05:36:01.745Z,4.10
2022-08-03T05:37:04.164Z,3.97
2022-08-03T05:38:06.367Z,4.30
2022-08-03T05:39:10.994Z,4.10
2022-08-03T05:40:13.227Z,4.27
2022-08-03T05:41:22.906Z,3.83
2022-08-03T05:42:25.929Z,3.97
2022-08-03T05:43:28.170Z,3.77
2022-08-03T05:44:31.320Z,3.87
2022-08-03T05:45:33.278Z,3.60
2022-08-03T05:46:34.935Z,3.80
2022-08-03T05:47:36.577Z,3.40
2022-08-03T05:48:38.430Z,4.13
2022-08-03T05:49:40.199Z,3.40
2022-08-03T05:50:42.969Z,3.53
2022-08-03T05:51:44.983Z,3.73
2022-08-03T05:52:46.697Z,3.87
2022-08-03T05:53:48.898Z,4.30
2022-08-03T05:54:56.247Z,4.20
2022-08-03T05:56:02.519Z,4.10
2022-08-03T05:57:16.424Z,4.13
2022-08-03T05:58:18.125Z,4.10
2022-08-03T05:59:37.600Z,4.13
2022-08-03T06:00:39.682Z,3.90
2022-08-03T06:01:41.530Z,3.90
2022-08-03T06:02:43.947Z,4.03
2022-08-03T06:03:46.393Z,3.77
2022-08-03T06:04:48.683Z,4.40
2022-08-03T06:05:55.579Z,4.10
2022-08-03T06:07:02.156Z,4.17
2022-08-03T06:08:04.420Z,3.80
2022-08-03T06:09:06.130Z,3.73
2022-08-03T06:10:35.941Z,3.47
2022-08-03T06:11:31.565Z,3.90
2022-08-03T06:12:36.200Z,4.33
2022-08-03T06:13:38.778Z,4.00
2022-08-03T06:14:40.548Z,3.70
2022-08-03T06:15:42.576Z,3.97
2022-08-03T06:16:44.248Z,4.27
2022-08-03T06:17:47.790Z,4.10
2022-08-03T06:18:49.517Z,3.97
2022-08-03T06:19:53.958Z,4.03
2022-08-03T06:20:55.695Z,3.73
2022-08-03T06:21:57.556Z,4.13
2022-08-03T06:23:01.408Z,4.07
2022-08-03T06:24:03.225Z,4.43
2022-08-03T06:25:12.708Z,4.25
2022-08-03T06:26:14.797Z,4.03
2022-08-03T06:27:16.961Z,3.85
2022-08-03T06:28:51.825Z,4.40
2022-08-03T06:29:40.436Z,4.30
2022-08-03T06:30:42.180Z,4.55
2022-08-03T06:31:43.824Z,3.70
2022-08-03T06:32:51.953Z,4.30
2022-08-03T06:34:31.244Z,4.10
2022-08-03T06:35:16.466Z,4.45
2022-08-03T06:36:18.625Z,4.28
2022-08-03T06:37:20.424Z,4.07
2022-08-03T06:38:22.035Z,4.20
2022-08-03T06:39:24.324Z,4.50
2022-08-03T06:40:33.133Z,4.65
2022-08-03T06:41:38.104Z,4.15
2022-08-03T06:42:46.540Z,4.50
2022-08-03T06:44:03.628Z,4.18
2022-08-03T06:45:08.892Z,4.13
2022-08-03T06:46:11.181Z,4.32
2022-08-03T06:47:12.934Z,4.00
2022-08-03T06:48:14.748Z,4.20
2022-08-03T06:49:16.718Z,4.45
2022-08-03T06:50:22.922Z,4.15
2022-08-03T06:52:05.655Z,4.25
2022-08-03T06:52:48.911Z,4.07
2022-08-03T06:53:50.573Z,4.75
2022-08-03T06:54:52.200Z,4.55
2022-08-03T06:55:54.973Z,4.30
2022-08-03T06:56:57.064Z,4.25
2022-08-03T06:57:59.959Z,4.40
2022-08-03T06:59:05.231Z,3.88
2022-08-03T07:00:12.411Z,4.18
2022-08-03T07:01:14.462Z,4.50
2022-08-03T07:02:20.843Z,3.97
2022-08-03T07:03:22.621Z,4.25
2022-08-03T07:04:24.585Z,4.40
2022-08-03T07:05:26.415Z,4.40
2022-08-03T07:06:28.400Z,4.20
2022-08-03T07:07:30.242Z,4.53
2022-08-03T07:08:34.313Z,4.72
2022-08-03T07:09:36.429Z,4.50
2022-08-03T07:10:38.272Z,4.20
2022-08-03T07:11:39.981Z,4.07
2022-08-03T07:12:52.755Z,4.05
2022-08-03T07:13:58.796Z,4.53
2022-08-03T07:15:03.357Z,4.28
2022-08-03T07:16:06.795Z,3.92
2022-08-03T07:17:11.448Z,4.03
2022-08-03T07:18:13.497Z,4.57
2022-08-03T07:19:15.324Z,4.07
2022-08-03T07:20:18.336Z,5.00
2022-08-03T07:21:19.906Z,4.32
2022-08-03T07:22:21.689Z,4.10
2022-08-03T07:23:23.899Z,4.28
2022-08-03T07:24:25.674Z,4.07
2022-08-03T07:25:28.986Z,5.00
2022-08-03T07:26:30.948Z,4.18
2022-08-03T07:27:33.851Z,4.72
2022-08-03T07:28:35.819Z,4.57
2022-08-03T07:29:37.933Z,4.15
2022-08-03T07:30:39.649Z,4.10
2022-08-03T07:31:42.275Z,4.03
2022-08-03T07:32:50.507Z,4.68
2022-08-03T07:33:52.612Z,4.53
2022-08-03T07:34:59.914Z,4.55
2022-08-03T07:36:03.520Z,4.72
2022-08-03T07:37:05.653Z,4.45
2022-08-03T07:38:07.676Z,4.60
2022-08-03T07:39:17.788Z,5.30
2022-08-03T07:40:20.339Z,4.43
2022-08-03T07:41:22.340Z,4.72
2022-08-03T07:42:24.056Z,4.63
2022-08-03T07:43:25.916Z,4.50
2022-08-03T07:44:27.478Z,4.40
2022-08-03T07:45:30.718Z,4.28
2022-08-03T07:46:32.956Z,4.05
2022-08-03T07:47:36.091Z,4.63
2022-08-03T07:48:37.804Z,4.38
2022-08-03T07:49:41.194Z,4.00
2022-08-03T07:50:43.256Z,4.00
2022-08-03T07:51:45.399Z,4.97
2022-08-03T07:52:50.589Z,4.22
2022-08-03T07:53:52.998Z,3.75
2022-08-03T07:54:54.725Z,4.47
2022-08-03T07:55:57.137Z,3.95
2022-08-03T07:56:58.802Z,4.40
2022-08-03T07:58:20.623Z,4.25
2022-08-03T07:59:25.906Z,4.63
2022-08-03T08:00:27.976Z,5.35
2022-08-03T08:01:30.101Z,4.55
2022-08-03T08:02:32.399Z,4.70
2022-08-03T08:03:52.312Z,5.00
2022-08-03T08:04:55.749Z,4.72
2022-08-03T08:05:57.852Z,4.50
2022-08-03T08:06:59.427Z,4.07
2022-08-03T08:08:01.888Z,4.25
2022-08-03T08:09:03.645Z,4.32
2022-08-03T08:10:12.861Z,4.07
2022-08-03T08:11:15.273Z,4.43
2022-08-03T08:12:17.257Z,4.25
2022-08-03T08:13:19.563Z,4.82
2022-08-03T08:14:21.175Z,4.90
2022-08-03T08:15:23.361Z,4.57
2022-08-03T08:16:25.229Z,4.38
2022-08-03T08:17:27.097Z,3.90
2022-08-03T08:18:31.908Z,4.30
2022-08-03T08:19:33.470Z,4.63
2022-08-03T08:20:40.056Z,4.32
2022-08-03T08:21:53.000Z,4.28
2022-08-03T08:23:17.289Z,4.95
2022-08-03T08:24:30.452Z,4.32
2022-08-03T08:25:33.906Z,3.85
2022-08-03T08:26:36.870Z,4.50
2022-08-03T08:28:22.203Z,4.57
2022-08-03T08:29:08.244Z,3.78
2022-08-03T08:30:13.042Z,4.00
2022-08-03T08:31:16.582Z,3.67
2022-08-03T08:32:18.658Z,3.90
2022-08-03T08:33:23.093Z,4.57
2022-08-03T08:34:25.548Z,4.30
2022-08-03T08:35:27.246Z,4.00
2022-08-03T08:36:28.856Z,4.47
2022-08-03T08:37:30.409Z,4.30
2022-08-03T08:38:32.134Z,4.60
2022-08-03T08:39:33.681Z,4.40
2022-08-03T08:40:35.374Z,3.70
2022-08-03T08:41:36.969Z,4.68
2022-08-03T08:42:40.344Z,4.43
2022-08-03T08:43:46.711Z,4.25
2022-08-03T08:44:48.542Z,4.55
2022-08-03T08:45:50.968Z,4.28
2022-08-03T08:46:55.168Z,3.83
2022-08-03T08:48:01.874Z,4.10
2022-08-03T08:49:07.667Z,4.00
2022-08-03T08:50:16.530Z,3.63
2022-08-03T08:51:54.465Z,4.13
2022-08-03T08:52:54.628Z,4.50
2022-08-03T08:53:57.996Z,3.88
2022-08-03T08:55:02.199Z,4.20
2022-08-03T08:56:05.056Z,4.55
2022-08-03T08:57:26.790Z,4.40
2022-08-03T08:58:41.539Z,4.18
2022-08-03T08:59:47.968Z,4.50
2022-08-03T09:00:51.290Z,4.20
2022-08-03T09:01:57.903Z,4.30
2022-08-03T09:03:01.224Z,4.22
2022-08-03T09:04:07.718Z,4.30
2022-08-03T09:05:18.471Z,3.80
2022-08-03T09:06:21.557Z,4.25
2022-08-03T09:07:23.515Z,4.00
2022-08-03T09:08:25.268Z,4.07
2022-08-03T09:09:28.476Z,4.60
2022-08-03T09:10:49.252Z,3.95
2022-08-03T09:11:52.481Z,4.20
2022-08-03T09:13:02.743Z,4.63
2022-08-03T09:14:05.405Z,3.90
2022-08-03T09:15:20.582Z,4.47
2022-08-03T09:16:22.963Z,4.50
2022-08-03T09:17:24.911Z,4.60
2022-08-03T09:18:33.443Z,4.22
2022-08-03T09:19:35.894Z,4.13
2022-08-03T09:20:38.016Z,4.00
2022-08-03T09:21:39.865Z,4.00
2022-08-03T09:23:00.344Z,4.05
2022-08-03T09:24:06.287Z,4.50
2022-08-03T09:25:24.472Z,3.67
2022-08-03T09:26:29.248Z,3.72
2022-08-03T09:27:43.647Z,4.43
2022-08-03T09:29:00.407Z,4.00
2022-08-03T09:30:32.507Z,4.30
2022-08-03T09:31:36.670Z,3.80
2022-08-03T09:32:38.630Z,4.00
2022-08-03T09:33:49.509Z,4.13
2022-08-03T09:34:57.826Z,3.53
2022-08-03T09:36:00.034Z,3.72
2022-08-03T09:37:01.703Z,4.55
2022-08-03T09:38:13.651Z,4.53
2022-08-03T09:39:19.522Z,3.67
2022-08-03T09:40:42.338Z,3.97
2022-08-03T09:41:47.063Z,3.85
2022-08-03T09:42:57.717Z,4.25
2022-08-03T09:43:59.619Z,4.13
2022-08-03T09:45:01.730Z,4.15
2022-08-03T09:46:05.156Z,3.78
2022-08-03T09:47:06.845Z,3.60
2022-08-03T09:48:29.434Z,4.60
2022-08-03T09:49:31.593Z,3.92
2022-08-03T09:50:57.014Z,3.60
2022-08-03T09:52:32.530Z,3.97
2022-08-03T09:53:57.265Z,3.65
2022-08-03T09:55:03.226Z,3.70
2022-08-03T09:56:34.096Z,3.78
2022-08-03T09:57:27.927Z,3.97
2022-08-03T09:58:31.430Z,3.92
2022-08-03T09:59:34.668Z,3.75
2022-08-03T10:01:04.154Z,4.07
2022-08-03T10:02:24.930Z,3.85
2022-08-03T10:03:29.680Z,3.25
2022-08-03T10:04:31.578Z,3.70
2022-08-03T10:05:33.666Z,3.90
2022-08-03T10:06:35.404Z,4.40
2022-08-03T10:07:50.444Z,4.03
2022-08-03T10:09:11.855Z,3.50
2022-08-03T10:10:31.019Z,3.78
2022-08-03T10:11:41.330Z,3.70
2022-08-03T10:12:44.770Z,4.30
2022-08-03T10:13:47.748Z,4.05
2022-08-03T10:14:50.029Z,4.70
2022-08-03T10:16:22.646Z,4.28
2022-08-03T10:17:13.682Z,4.00
2022-08-03T10:18:15.464Z,3.88
2022-08-03T10:19:17.872Z,3.67
2022-08-03T10:20:19.499Z,4.45
2022-08-03T10:21:22.140Z,4.15
2022-08-03T10:22:28.376Z,4.50
2022-08-03T10:23:35.359Z,4.43
2022-08-03T10:24:39.650Z,3.88
2022-08-03T10:25:43.850Z,3.80
2022-08-03T10:26:49.919Z,4.05
2022-08-03T10:27:53.285Z,3.80
2022-08-03T10:28:59.692Z,3.83
2022-08-03T10:30:06.690Z,4.00
2022-08-03T10:31:10.242Z,4.38
2022-08-03T10:32:21.703Z,3.97
2022-08-03T10:33:50.668Z,3.97
2022-08-03T10:35:00.178Z,5.13
2022-08-03T10:36:03.165Z,4.63
2022-08-03T10:37:10.485Z,4.05
2022-08-03T10:38:19.413Z,3.85
2022-08-03T10:39:23.187Z,4.10
2022-08-03T10:41:51.471Z,3.53
2022-08-03T10:42:59.366Z,3.83
2022-08-03T10:44:10.457Z,3.70
2022-08-03T10:45:25.736Z,4.00
2022-08-03T10:46:28.673Z,4.00
2022-08-03T10:47:31.962Z,3.92
2022-08-03T10:48:35.697Z,3.90
2022-08-03T10:49:38.327Z,3.85
2022-08-03T10:50:43.356Z,3.53
2022-08-03T10:51:46.662Z,4.40
2022-08-03T10:52:58.202Z,3.95
2022-08-03T10:54:03.746Z,3.80
2022-08-03T10:55:50.546Z,3.97
2022-08-03T10:57:14.287Z,3.95
2022-08-03T10:58:36.318Z,3.83
2022-08-03T10:59:46.862Z,4.15
2022-08-03T11:00:53.568Z,3.28
2022-08-03T11:02:00.876Z,3.78
2022-08-03T11:03:06.292Z,3.95
2022-08-03T11:04:11.880Z,3.90
2022-08-03T11:05:29.839Z,3.60
2022-08-03T11:06:37.260Z,3.55
2022-08-03T11:07:39.392Z,3.80
2022-08-03T11:08:41.494Z,3.72
2022-08-03T11:09:53.848Z,3.90
2022-08-03T11:10:58.562Z,3.33
2022-08-03T11:12:32.182Z,4.35
2022-08-03T11:13:34.272Z,3.88
2022-08-03T11:14:47.556Z,3.95
2022-08-03T11:15:52.307Z,3.80
2022-08-03T11:17:15.192Z,4.20
2022-08-03T11:18:16.949Z,3.63
2022-08-03T11:19:28.197Z,3.75
2022-08-03T11:20:49.128Z,3.33
2022-08-03T11:21:54.083Z,3.78
2022-08-03T11:22:58.378Z,3.65
2022-08-03T11:24:04.129Z,3.28
2022-08-03T11:25:08.328Z,3.28
2022-08-03T11:26:30.083Z,3.80
2022-08-03T11:27:33.501Z,3.80
2022-08-03T11:28:35.215Z,4.43
2022-08-03T11:29:36.813Z,3.80
2022-08-03T11:30:38.585Z,4.10
2022-08-03T11:31:51.681Z,3.97
2022-08-03T11:32:56.867Z,4.03
2022-08-03T11:34:13.186Z,3.60
2022-08-03T11:35:33.883Z,4.30
2022-08-03T11:37:13.026Z,3.38
2022-08-03T11:38:14.770Z,3.88
2022-08-03T11:39:17.250Z,3.10
2022-08-03T11:40:40.800Z,3.83
2022-08-03T11:41:45.171Z,3.67
2022-08-03T11:42:48.146Z,3.85
2022-08-03T11:43:50.129Z,3.70
2022-08-03T11:44:55.329Z,3.88
2022-08-03T11:46:07.719Z,3.45
2022-08-03T11:47:18.095Z,4.38
2022-08-03T11:48:21.390Z,4.13
2022-08-03T11:49:24.442Z,3.70
2022-08-03T11:50:26.223Z,4.05
2022-08-03T11:51:31.916Z,3.58
2022-08-03T11:52:39.108Z,3.58
2022-08-03T11:53:42.212Z,3.88
2022-08-03T11:54:44.545Z,3.85
2022-08-03T11:55:50.370Z,3.75
2022-08-03T11:56:52.252Z,3.45
2022-08-03T11:59:15.187Z,3.30
2022-08-03T11:59:35.538Z,4.10
2022-08-03T12:00:38.808Z,3.90
2022-08-03T12:01:41.821Z,4.20
2022-08-03T12:02:58.921Z,4.10
2022-08-03T12:04:05.517Z,3.72
2022-08-03T12:05:08.024Z,3.67
2022-08-03T12:06:16.169Z,3.30
2022-08-03T12:07:25.070Z,4.15
2022-08-03T12:08:44.607Z,3.78
2022-08-03T12:10:15.220Z,3.60
2022-08-03T12:11:18.270Z,3.65
2022-08-03T12:12:20.989Z,3.70
2022-08-03T12:14:37.373Z,3.45
2022-08-03T12:15:00.000Z,4.07
2022-08-03T12:16:02.895Z,3.65
2022-08-03T12:17:05.563Z,3.67
2022-08-03T12:18:18.313Z,4.03
2022-08-03T12:19:21.543Z,4.05
2022-08-03T12:20:35.031Z,4.25
2022-08-03T12:21:57.395Z,4.15
2022-08-03T12:23:06.848Z,4.05
2022-08-03T12:24:09.591Z,3.60
2022-08-03T12:25:26.993Z,3.70
2022-08-03T12:26:58.289Z,4.00
2022-08-03T12:28:37.322Z,4.15
2022-08-03T12:29:40.227Z,3.63
2022-08-03T12:30:43.685Z,4.15
2022-08-03T12:31:45.674Z,3.90
2022-08-03T12:32:47.279Z,3.85
2022-08-03T12:34:06.647Z,3.40
2022-08-03T12:35:08.750Z,3.97
2022-08-03T12:36:11.412Z,3.63
2022-08-03T12:37:21.847Z,3.70
2022-08-03T12:38:24.555Z,3.50
2022-08-03T12:39:30.872Z,3.67
2022-08-03T12:40:33.092Z,4.10
2022-08-03T12:41:38.275Z,3.92
2022-08-03T12:42:40.926Z,4.18
2022-08-03T12:43:49.959Z,3.95
2022-08-03T12:44:56.315Z,3.90
2022-08-03T12:46:13.112Z,3.70
2022-08-03T12:47:16.263Z,3.88
2022-08-03T12:48:18.029Z,4.40
2022-08-03T12:49:19.980Z,4.15
2022-08-03T12:50:35.133Z,3.80
2022-08-03T12:51:59.459Z,4.50
2022-08-03T12:53:08.890Z,3.95
2022-08-03T12:54:24.658Z,4.43
2022-08-03T12:55:57.722Z,3.80
2022-08-03T12:57:03.950Z,3.92
2022-08-03T12:58:08.177Z,3.75
2022-08-03T12:59:53.551Z,3.90
2022-08-03T13:00:56.171Z,4.18
2022-08-03T13:01:59.292Z,4.05
2022-08-03T13:04:35.186Z,3.72
2022-08-03T13:05:46.100Z,3.97
2022-08-03T13:07:02.680Z,4.03
2022-08-03T13:08:05.063Z,4.07
2022-08-03T13:09:07.956Z,3.72
2022-08-03T13:10:10.654Z,3.85
2022-08-03T13:11:55.680Z,3.47
2022-08-03T13:12:50.193Z,3.97
2022-08-03T13:13:53.743Z,3.53
2022-08-03T13:14:57.025Z,3.50
2022-08-03T13:15:59.404Z,3.90
2022-08-03T13:17:01.147Z,3.65
2022-08-03T13:18:02.841Z,3.47
2022-08-03T13:19:04.563Z,3.58
2022-08-03T13:20:07.102Z,3.50
2022-08-03T13:21:09.327Z,3.55
2022-08-03T13:22:25.461Z,3.30
2022-08-03T13:23:27.177Z,3.20
2022-08-03T13:24:29.552Z,3.65
2022-08-03T13:25:32.274Z,3.60
2022-08-03T13:26:33.921Z,3.42
2022-08-03T13:28:04.197Z,4.18
2022-08-03T13:28:57.619Z,3.85
2022-08-03T13:29:59.734Z,4.00
2022-08-03T13:31:01.534Z,3.80
2022-08-03T13:32:04.115Z,3.35
2022-08-03T13:33:05.878Z,3.70
2022-08-03T13:34:07.474Z,3.30
2022-08-03T13:35:10.141Z,3.47
2022-08-03T13:36:11.739Z,3.90
2022-08-03T13:37:14.542Z,3.60
2022-08-03T13:38:17.279Z,3.40
2022-08-03T13:39:20.070Z,3.40
2022-08-03T13:40:23.685Z,2.80
2022-08-03T13:41:31.886Z,3.45
2022-08-03T13:42:36.203Z,3.40
2022-08-03T13:43:37.798Z,4.00
2022-08-03T13:44:39.559Z,3.53
2022-08-03T13:45:44.495Z,3.70
2022-08-03T13:46:49.979Z,3.63
2022-08-03T13:47:52.300Z,3.17
2022-08-03T13:48:54.436Z,2.63
2022-08-03T13:50:01.664Z,3.03
2022-08-03T13:51:22.028Z,3.35
2022-08-03T13:52:24.974Z,3.28
2022-08-03T13:53:26.578Z,3.67
2022-08-03T13:54:28.298Z,3.20
2022-08-03T13:55:29.948Z,3.70
2022-08-03T13:56:32.444Z,3.35
2022-08-03T13:58:06.025Z,3.20
2022-08-03T13:58:57.731Z,3.15
2022-08-03T13:59:59.767Z,3.53
2022-08-03T14:01:01.529Z,3.42
2022-08-03T14:02:03.995Z,3.35
2022-08-03T14:03:13.430Z,3.63
2022-08-03T14:04:21.956Z,3.28
2022-08-03T14:05:24.442Z,2.65
2022-08-03T14:06:26.262Z,2.97
2022-08-03T14:07:28.173Z,3.10
2022-08-03T14:08:29.839Z,2.80
2022-08-03T14:09:31.814Z,3.10
2022-08-03T14:10:38.608Z,3.15
2022-08-03T14:12:07.226Z,2.92
2022-08-03T14:13:04.007Z,3.35
2022-08-03T14:14:05.712Z,2.78
2022-08-03T14:15:10.098Z,2.83
2022-08-03T14:16:11.902Z,2.60
2022-08-03T14:17:18.870Z,2.60
2022-08-03T14:18:28.639Z,2.63
2022-08-03T14:19:40.569Z,3.00
2022-08-03T14:20:56.781Z,3.13
2022-08-03T14:22:03.662Z,2.50
2022-08-03T14:23:08.845Z,2.60
2022-08-03T14:24:10.456Z,2.80
2022-08-03T14:25:12.018Z,2.90
2022-08-03T14:26:15.436Z,2.90
2022-08-03T14:27:17.529Z,2.67
2022-08-03T14:28:23.587Z,2.53
2022-08-03T14:29:25.689Z,2.78
2022-08-03T14:30:27.417Z,3.00
2022-08-03T14:32:09.847Z,2.70
2022-08-03T14:32:51.336Z,3.00
2022-08-03T14:33:53.064Z,2.67
2022-08-03T14:34:54.688Z,3.15
2022-08-03T14:35:57.138Z,2.90
2022-08-03T14:36:59.255Z,3.08
2022-08-03T14:38:00.965Z,3.17
2022-08-03T14:39:02.779Z,2.88
2022-08-03T14:40:06.029Z,2.80
2022-08-03T14:41:12.314Z,2.90
2022-08-03T14:42:22.714Z,2.90
2022-08-03T14:43:24.447Z,3.17
2022-08-03T14:44:26.112Z,2.83
2022-08-03T14:45:28.189Z,3.00
2022-08-03T14:46:30.513Z,2.95
2022-08-03T14:47:33.524Z,3.30
2022-08-03T14:50:31.011Z,2.70
2022-08-03T14:50:34.333Z,3.20
2022-08-03T14:51:38.451Z,3.30
2022-08-03T14:52:53.581Z,2.65
2022-08-03T14:53:55.246Z,2.67
2022-08-03T14:54:57.703Z,2.95
2022-08-03T14:55:59.278Z,2.90
2022-08-03T14:57:00.916Z,2.80
2022-08-03T14:58:07.207Z,2.70
2022-08-03T14:59:23.278Z,2.67
2022-08-03T15:00:25.568Z,2.60